Startpagina
METAR-TAF:

METAR-TAF

Vliegvelden :

Vliegbasis Volkel

Uden, Nederland

breedte: 51-39N, lengte: 005-42E, hoogte: 22 m

Actueel weer

Dit bericht is 14 minuten geleden gemaakt, om 23:25 UTC
Wind 2 kt uit variabele richting
Temperatuur 11°C
Vochtigheid 82%
Druk 1026 hPa
Zicht 10 km of meer

METAR: EHVK 122325Z AUTO VRB02KT 9999 NCD 11/08 Q1026 BLU

Tijdstip: 01:39 (23:39 UTC)

Verwachting

Dit bericht is 2 uur en het 51 minuten geleden gemaakt, om 20:48 UTC
Verwachting geldig van 12 om 21 UTC tot 13 om 09 UTC
Wind 4 kt uit het westnoordwesten
Zicht 10 km of meer
geen wolken onder 1500 m en geen cumulonimbus
Wijzigt naar
van 12 om 21 UTC tot 12 om 24 UTC
Wind 2 kt uit variabele richting
Kans 30% :
Tijdelijke
van 13 om 03 UTC tot 13 om 05 UTC
Zicht: 4000 m
Ondiepe mist, nevel

TAF: EHVK 122048Z 1221/1309 29004KT CAVOK BECMG 1221/1224 VRB02KT PROB30 TEMPO 1303/1305 4000 MIFG BR

Waarnemingen en weersverwachtingen van meer dan 4000 vliegvelden (METAR en TAF).

De beschikbare stations zijn de gele en rode punten op de kaart.

Ga met uw muis naar het station om de naam te zien.

Klik dan om waarnemingen en weersverwachtingen te zien.

kaart wijzigen: klik op de groene knoppen met een zwart kruis om in te zoomen, op de groene knop met een streepje om uit te zoomen of op de groene pijlen voor aangrenzende kaarten.


METAR-TAF: